sensor_id;sensor_type;location;lat;lon;timestamp;P1;durP1;ratioP1;P2;durP2;ratioP2
29732;SDS011;16643;43.158;25.302;2022-10-16T00:01:28;12.38;;;7.93;;
29732;SDS011;16643;43.158;25.302;2022-10-16T00:03:55;10.95;;;8.88;;
29732;SDS011;16643;43.158;25.302;2022-10-16T00:06:22;14.50;;;9.90;;
29732;SDS011;16643;43.158;25.302;2022-10-16T00:08:49;17.17;;;9.05;;
29732;SDS011;16643;43.158;25.302;2022-10-16T00:11:17;13.15;;;9.00;;
29732;SDS011;16643;43.158;25.302;2022-10-16T00:13:57;12.13;;;8.50;;
29732;SDS011;16643;43.158;25.302;2022-10-16T00:16:26;15.02;;;8.68;;
29732;SDS011;16643;43.158;25.302;2022-10-16T00:18:52;15.15;;;9.10;;
29732;SDS011;16643;43.158;25.302;2022-10-16T00:21:19;14.93;;;8.77;;
29732;SDS011;16643;43.158;25.302;2022-10-16T00:23:50;15.05;;;8.98;;
29732;SDS011;16643;43.158;25.302;2022-10-16T00:26:17;14.05;;;8.82;;
29732;SDS011;16643;43.158;25.302;2022-10-16T00:28:50;11.45;;;8.00;;
29732;SDS011;16643;43.158;25.302;2022-10-16T00:31:17;12.95;;;8.15;;
29732;SDS011;16643;43.158;25.302;2022-10-16T00:33:44;14.55;;;9.20;;
29732;SDS011;16643;43.158;25.302;2022-10-16T00:36:11;14.98;;;9.27;;
29732;SDS011;16643;43.158;25.302;2022-10-16T00:38:38;11.68;;;8.88;;
29732;SDS011;16643;43.158;25.302;2022-10-16T00:41:05;15.00;;;9.13;;
29732;SDS011;16643;43.158;25.302;2022-10-16T00:46:29;12.70;;;8.73;;
29732;SDS011;16643;43.158;25.302;2022-10-16T00:49:00;12.55;;;8.88;;
29732;SDS011;16643;43.158;25.302;2022-10-16T00:51:41;14.57;;;8.77;;
29732;SDS011;16643;43.158;25.302;2022-10-16T00:54:13;15.65;;;8.68;;
29732;SDS011;16643;43.158;25.302;2022-10-16T00:56:43;14.48;;;9.70;;
29732;SDS011;16643;43.158;25.302;2022-10-16T01:01:52;15.25;;;9.48;;
29732;SDS011;16643;43.158;25.302;2022-10-16T01:04:19;13.60;;;9.23;;
29732;SDS011;16643;43.158;25.302;2022-10-16T01:09:17;13.52;;;9.10;;
29732;SDS011;16643;43.158;25.302;2022-10-16T01:11:57;15.30;;;9.90;;
29732;SDS011;16643;43.158;25.302;2022-10-16T01:14:42;16.30;;;10.00;;
29732;SDS011;16643;43.158;25.302;2022-10-16T01:25:36;13.23;;;9.23;;
29732;SDS011;16643;43.158;25.302;2022-10-16T01:28:23;13.20;;;9.40;;
29732;SDS011;16643;43.158;25.302;2022-10-16T01:30:56;15.35;;;9.90;;
29732;SDS011;16643;43.158;25.302;2022-10-16T01:33:29;12.25;;;8.88;;
29732;SDS011;16643;43.158;25.302;2022-10-16T01:36:06;13.65;;;9.00;;
29732;SDS011;16643;43.158;25.302;2022-10-16T01:38:38;13.85;;;9.00;;
29732;SDS011;16643;43.158;25.302;2022-10-16T01:41:12;12.45;;;8.43;;
29732;SDS011;16643;43.158;25.302;2022-10-16T01:43:49;14.65;;;10.02;;
29732;SDS011;16643;43.158;25.302;2022-10-16T01:46:29;16.25;;;10.07;;
29732;SDS011;16643;43.158;25.302;2022-10-16T01:48:57;19.00;;;9.63;;
29732;SDS011;16643;43.158;25.302;2022-10-16T01:51:24;13.55;;;9.85;;
29732;SDS011;16643;43.158;25.302;2022-10-16T01:53:54;14.20;;;9.23;;
29732;SDS011;16643;43.158;25.302;2022-10-16T01:56:23;11.07;;;8.98;;
29732;SDS011;16643;43.158;25.302;2022-10-16T01:58:52;16.00;;;10.00;;
29732;SDS011;16643;43.158;25.302;2022-10-16T02:01:25;11.88;;;9.25;;
29732;SDS011;16643;43.158;25.302;2022-10-16T02:03:55;15.63;;;9.30;;
29732;SDS011;16643;43.158;25.302;2022-10-16T02:06:24;13.20;;;9.50;;
29732;SDS011;16643;43.158;25.302;2022-10-16T02:08:50;14.68;;;10.00;;
29732;SDS011;16643;43.158;25.302;2022-10-16T02:11:16;12.73;;;8.70;;
29732;SDS011;16643;43.158;25.302;2022-10-16T02:13:46;14.02;;;9.70;;
29732;SDS011;16643;43.158;25.302;2022-10-16T02:16:16;13.73;;;8.68;;
29732;SDS011;16643;43.158;25.302;2022-10-16T02:18:43;13.52;;;9.55;;
29732;SDS011;16643;43.158;25.302;2022-10-16T02:24:11;13.63;;;9.40;;
29732;SDS011;16643;43.158;25.302;2022-10-16T02:26:57;13.10;;;9.68;;
29732;SDS011;16643;43.158;25.302;2022-10-16T02:29:31;17.17;;;9.77;;
29732;SDS011;16643;43.158;25.302;2022-10-16T02:32:03;19.40;;;9.55;;
29732;SDS011;16643;43.158;25.302;2022-10-16T02:36:58;15.30;;;9.27;;
29732;SDS011;16643;43.158;25.302;2022-10-16T02:41:53;15.88;;;9.57;;
29732;SDS011;16643;43.158;25.302;2022-10-16T02:44:19;15.65;;;9.73;;
29732;SDS011;16643;43.158;25.302;2022-10-16T02:46:44;13.73;;;9.30;;
29732;SDS011;16643;43.158;25.302;2022-10-16T02:49:10;12.25;;;9.02;;
29732;SDS011;16643;43.158;25.302;2022-10-16T02:51:35;15.68;;;9.57;;
29732;SDS011;16643;43.158;25.302;2022-10-16T02:54:02;14.60;;;9.57;;
29732;SDS011;16643;43.158;25.302;2022-10-16T02:56:28;19.77;;;9.48;;
29732;SDS011;16643;43.158;25.302;2022-10-16T02:58:58;15.82;;;9.50;;
29732;SDS011;16643;43.158;25.302;2022-10-16T03:01:23;14.80;;;9.88;;
29732;SDS011;16643;43.158;25.302;2022-10-16T03:03:49;13.65;;;8.80;;
29732;SDS011;16643;43.158;25.302;2022-10-16T03:06:15;13.88;;;8.98;;
29732;SDS011;16643;43.158;25.302;2022-10-16T03:08:41;14.27;;;9.85;;
29732;SDS011;16643;43.158;25.302;2022-10-16T03:11:07;16.55;;;10.23;;
29732;SDS011;16643;43.158;25.302;2022-10-16T03:13:33;13.55;;;9.05;;
29732;SDS011;16643;43.158;25.302;2022-10-16T03:15:58;17.58;;;11.23;;
29732;SDS011;16643;43.158;25.302;2022-10-16T03:18:24;17.92;;;11.25;;
29732;SDS011;16643;43.158;25.302;2022-10-16T03:20:50;14.15;;;10.55;;
29732;SDS011;16643;43.158;25.302;2022-10-16T03:23:15;17.33;;;10.38;;
29732;SDS011;16643;43.158;25.302;2022-10-16T03:25:41;14.95;;;10.63;;
29732;SDS011;16643;43.158;25.302;2022-10-16T03:28:06;22.48;;;11.68;;
29732;SDS011;16643;43.158;25.302;2022-10-16T03:30:32;15.98;;;10.38;;
29732;SDS011;16643;43.158;25.302;2022-10-16T03:32:58;16.65;;;10.52;;
29732;SDS011;16643;43.158;25.302;2022-10-16T03:35:23;15.88;;;10.13;;
29732;SDS011;16643;43.158;25.302;2022-10-16T03:37:49;17.23;;;10.27;;
29732;SDS011;16643;43.158;25.302;2022-10-16T03:40:16;17.08;;;10.00;;
29732;SDS011;16643;43.158;25.302;2022-10-16T03:42:42;12.73;;;10.00;;
29732;SDS011;16643;43.158;25.302;2022-10-16T03:45:08;20.58;;;11.23;;
29732;SDS011;16643;43.158;25.302;2022-10-16T03:47:35;15.27;;;10.27;;
29732;SDS011;16643;43.158;25.302;2022-10-16T03:50:01;14.98;;;10.55;;
29732;SDS011;16643;43.158;25.302;2022-10-16T03:52:27;14.32;;;9.35;;
29732;SDS011;16643;43.158;25.302;2022-10-16T03:54:52;14.60;;;11.43;;
29732;SDS011;16643;43.158;25.302;2022-10-16T03:57:18;15.57;;;10.18;;
29732;SDS011;16643;43.158;25.302;2022-10-16T03:59:44;15.75;;;10.55;;
29732;SDS011;16643;43.158;25.302;2022-10-16T04:02:09;16.27;;;9.57;;
29732;SDS011;16643;43.158;25.302;2022-10-16T04:04:35;15.52;;;10.15;;
29732;SDS011;16643;43.158;25.302;2022-10-16T04:07:01;14.63;;;9.77;;
29732;SDS011;16643;43.158;25.302;2022-10-16T04:09:27;14.75;;;9.35;;
29732;SDS011;16643;43.158;25.302;2022-10-16T04:11:52;13.85;;;9.65;;
29732;SDS011;16643;43.158;25.302;2022-10-16T04:14:18;13.73;;;9.23;;
29732;SDS011;16643;43.158;25.302;2022-10-16T04:16:44;19.77;;;9.77;;
29732;SDS011;16643;43.158;25.302;2022-10-16T04:19:10;15.88;;;9.43;;
29732;SDS011;16643;43.158;25.302;2022-10-16T04:21:36;17.60;;;10.50;;
29732;SDS011;16643;43.158;25.302;2022-10-16T04:24:02;19.05;;;9.93;;
29732;SDS011;16643;43.158;25.302;2022-10-16T04:26:27;12.85;;;10.55;;
29732;SDS011;16643;43.158;25.302;2022-10-16T04:28:53;16.13;;;10.25;;
29732;SDS011;16643;43.158;25.302;2022-10-16T04:31:19;15.60;;;8.98;;
29732;SDS011;16643;43.158;25.302;2022-10-16T04:33:45;15.15;;;9.98;;
29732;SDS011;16643;43.158;25.302;2022-10-16T04:36:11;17.23;;;9.93;;
29732;SDS011;16643;43.158;25.302;2022-10-16T04:38:37;19.05;;;10.88;;
29732;SDS011;16643;43.158;25.302;2022-10-16T04:41:04;17.85;;;11.82;;
29732;SDS011;16643;43.158;25.302;2022-10-16T04:43:31;15.55;;;9.20;;
29732;SDS011;16643;43.158;25.302;2022-10-16T04:45:57;14.23;;;10.18;;
29732;SDS011;16643;43.158;25.302;2022-10-16T04:48:22;15.27;;;10.25;;
29732;SDS011;16643;43.158;25.302;2022-10-16T04:50:48;18.33;;;10.43;;
29732;SDS011;16643;43.158;25.302;2022-10-16T04:53:13;18.77;;;10.15;;
29732;SDS011;16643;43.158;25.302;2022-10-16T04:55:40;14.65;;;9.25;;
29732;SDS011;16643;43.158;25.302;2022-10-16T04:58:06;15.48;;;9.88;;
29732;SDS011;16643;43.158;25.302;2022-10-16T05:00:32;16.60;;;11.38;;
29732;SDS011;16643;43.158;25.302;2022-10-16T05:02:58;15.82;;;9.80;;
29732;SDS011;16643;43.158;25.302;2022-10-16T05:05:25;15.77;;;10.13;;
29732;SDS011;16643;43.158;25.302;2022-10-16T05:07:51;15.82;;;9.70;;
29732;SDS011;16643;43.158;25.302;2022-10-16T05:10:17;13.32;;;9.25;;
29732;SDS011;16643;43.158;25.302;2022-10-16T05:12:43;14.48;;;9.60;;
29732;SDS011;16643;43.158;25.302;2022-10-16T05:15:09;16.63;;;10.23;;
29732;SDS011;16643;43.158;25.302;2022-10-16T05:17:35;16.80;;;10.00;;
29732;SDS011;16643;43.158;25.302;2022-10-16T05:20:01;15.68;;;10.00;;
29732;SDS011;16643;43.158;25.302;2022-10-16T05:22:26;13.45;;;8.93;;
29732;SDS011;16643;43.158;25.302;2022-10-16T05:24:52;16.55;;;10.20;;
29732;SDS011;16643;43.158;25.302;2022-10-16T05:27:18;12.00;;;9.55;;
29732;SDS011;16643;43.158;25.302;2022-10-16T05:29:46;15.25;;;9.20;;
29732;SDS011;16643;43.158;25.302;2022-10-16T05:32:14;12.20;;;9.60;;
29732;SDS011;16643;43.158;25.302;2022-10-16T05:34:40;15.40;;;9.18;;
29732;SDS011;16643;43.158;25.302;2022-10-16T05:37:06;14.63;;;8.65;;
29732;SDS011;16643;43.158;25.302;2022-10-16T05:39:32;14.05;;;8.88;;
29732;SDS011;16643;43.158;25.302;2022-10-16T05:41:58;14.93;;;9.75;;
29732;SDS011;16643;43.158;25.302;2022-10-16T05:44:23;14.00;;;10.40;;
29732;SDS011;16643;43.158;25.302;2022-10-16T05:46:49;17.75;;;11.00;;
29732;SDS011;16643;43.158;25.302;2022-10-16T05:49:15;16.90;;;11.65;;
29732;SDS011;16643;43.158;25.302;2022-10-16T05:51:41;19.83;;;14.13;;
29732;SDS011;16643;43.158;25.302;2022-10-16T05:54:07;20.63;;;14.43;;
29732;SDS011;16643;43.158;25.302;2022-10-16T05:56:33;19.85;;;12.82;;
29732;SDS011;16643;43.158;25.302;2022-10-16T05:58:58;18.20;;;12.95;;
29732;SDS011;16643;43.158;25.302;2022-10-16T06:01:24;18.88;;;12.50;;
29732;SDS011;16643;43.158;25.302;2022-10-16T06:03:50;20.80;;;12.90;;
29732;SDS011;16643;43.158;25.302;2022-10-16T06:06:17;17.52;;;11.98;;
29732;SDS011;16643;43.158;25.302;2022-10-16T06:08:48;16.33;;;11.52;;
29732;SDS011;16643;43.158;25.302;2022-10-16T06:11:20;17.25;;;11.00;;
29732;SDS011;16643;43.158;25.302;2022-10-16T06:13:51;18.98;;;10.13;;
29732;SDS011;16643;43.158;25.302;2022-10-16T06:16:18;16.10;;;9.93;;
29732;SDS011;16643;43.158;25.302;2022-10-16T06:18:44;19.15;;;10.57;;
29732;SDS011;16643;43.158;25.302;2022-10-16T06:21:14;14.77;;;9.98;;
29732;SDS011;16643;43.158;25.302;2022-10-16T06:23:42;12.93;;;8.60;;
29732;SDS011;16643;43.158;25.302;2022-10-16T06:26:12;14.23;;;8.88;;
29732;SDS011;16643;43.158;25.302;2022-10-16T06:28:40;13.90;;;8.80;;
29732;SDS011;16643;43.158;25.302;2022-10-16T06:31:06;12.68;;;7.90;;
29732;SDS011;16643;43.158;25.302;2022-10-16T06:33:34;10.90;;;8.65;;
29732;SDS011;16643;43.158;25.302;2022-10-16T06:36:01;10.68;;;7.28;;
29732;SDS011;16643;43.158;25.302;2022-10-16T06:38:27;11.63;;;9.13;;
29732;SDS011;16643;43.158;25.302;2022-10-16T06:40:53;16.88;;;9.32;;
29732;SDS011;16643;43.158;25.302;2022-10-16T06:43:19;15.82;;;9.70;;
29732;SDS011;16643;43.158;25.302;2022-10-16T06:45:54;18.05;;;11.68;;
29732;SDS011;16643;43.158;25.302;2022-10-16T06:48:21;26.08;;;13.05;;
29732;SDS011;16643;43.158;25.302;2022-10-16T06:53:23;16.20;;;10.68;;
29732;SDS011;16643;43.158;25.302;2022-10-16T06:55:49;20.23;;;11.70;;
29732;SDS011;16643;43.158;25.302;2022-10-16T06:58:15;19.45;;;11.02;;
29732;SDS011;16643;43.158;25.302;2022-10-16T07:00:41;16.35;;;11.05;;
29732;SDS011;16643;43.158;25.302;2022-10-16T07:03:06;17.35;;;10.23;;
29732;SDS011;16643;43.158;25.302;2022-10-16T07:05:36;14.32;;;8.40;;
29732;SDS011;16643;43.158;25.302;2022-10-16T07:08:03;11.82;;;7.15;;
29732;SDS011;16643;43.158;25.302;2022-10-16T07:10:30;14.18;;;7.30;;
29732;SDS011;16643;43.158;25.302;2022-10-16T07:12:56;12.93;;;7.13;;
29732;SDS011;16643;43.158;25.302;2022-10-16T07:15:22;12.02;;;6.43;;
29732;SDS011;16643;43.158;25.302;2022-10-16T07:17:49;11.77;;;6.40;;
29732;SDS011;16643;43.158;25.302;2022-10-16T07:20:15;17.33;;;6.93;;
29732;SDS011;16643;43.158;25.302;2022-10-16T07:22:41;10.10;;;6.53;;
29732;SDS011;16643;43.158;25.302;2022-10-16T07:25:07;13.30;;;5.55;;
29732;SDS011;16643;43.158;25.302;2022-10-16T07:27:33;9.32;;;5.97;;
29732;SDS011;16643;43.158;25.302;2022-10-16T07:29:59;11.40;;;6.97;;
29732;SDS011;16643;43.158;25.302;2022-10-16T07:32:24;9.05;;;6.28;;
29732;SDS011;16643;43.158;25.302;2022-10-16T07:34:51;9.88;;;7.07;;
29732;SDS011;16643;43.158;25.302;2022-10-16T07:37:17;12.05;;;5.70;;
29732;SDS011;16643;43.158;25.302;2022-10-16T07:39:42;9.10;;;5.65;;
29732;SDS011;16643;43.158;25.302;2022-10-16T07:42:08;10.93;;;5.40;;
29732;SDS011;16643;43.158;25.302;2022-10-16T07:44:34;8.07;;;5.20;;
29732;SDS011;16643;43.158;25.302;2022-10-16T07:46:59;9.45;;;5.85;;
29732;SDS011;16643;43.158;25.302;2022-10-16T07:49:25;18.40;;;7.25;;
29732;SDS011;16643;43.158;25.302;2022-10-16T07:51:51;13.18;;;6.55;;
29732;SDS011;16643;43.158;25.302;2022-10-16T07:54:16;11.23;;;7.00;;
29732;SDS011;16643;43.158;25.302;2022-10-16T07:56:42;9.05;;;6.10;;
29732;SDS011;16643;43.158;25.302;2022-10-16T07:59:08;12.73;;;7.43;;
29732;SDS011;16643;43.158;25.302;2022-10-16T08:01:34;11.23;;;6.25;;
29732;SDS011;16643;43.158;25.302;2022-10-16T08:03:59;14.25;;;6.13;;
29732;SDS011;16643;43.158;25.302;2022-10-16T08:06:25;16.20;;;7.57;;
29732;SDS011;16643;43.158;25.302;2022-10-16T08:08:51;14.30;;;7.53;;
29732;SDS011;16643;43.158;25.302;2022-10-16T08:11:16;18.73;;;8.10;;
29732;SDS011;16643;43.158;25.302;2022-10-16T08:13:42;14.90;;;6.95;;
29732;SDS011;16643;43.158;25.302;2022-10-16T08:16:08;8.25;;;6.63;;
29732;SDS011;16643;43.158;25.302;2022-10-16T08:18:35;15.30;;;8.32;;
29732;SDS011;16643;43.158;25.302;2022-10-16T08:21:01;10.45;;;7.75;;
29732;SDS011;16643;43.158;25.302;2022-10-16T08:23:28;11.38;;;7.80;;
29732;SDS011;16643;43.158;25.302;2022-10-16T08:25:54;12.13;;;7.95;;
29732;SDS011;16643;43.158;25.302;2022-10-16T08:28:21;9.18;;;6.93;;
29732;SDS011;16643;43.158;25.302;2022-10-16T08:30:48;10.55;;;7.20;;
29732;SDS011;16643;43.158;25.302;2022-10-16T08:33:14;15.07;;;7.72;;
29732;SDS011;16643;43.158;25.302;2022-10-16T08:35:39;11.73;;;7.25;;
29732;SDS011;16643;43.158;25.302;2022-10-16T08:38:05;13.10;;;7.55;;
29732;SDS011;16643;43.158;25.302;2022-10-16T08:40:32;11.25;;;7.57;;
29732;SDS011;16643;43.158;25.302;2022-10-16T08:46:00;13.80;;;7.05;;
29732;SDS011;16643;43.158;25.302;2022-10-16T08:48:36;11.90;;;7.22;;
29732;SDS011;16643;43.158;25.302;2022-10-16T08:51:33;48.25;;;23.85;;
29732;SDS011;16643;43.158;25.302;2022-10-16T08:56:32;15.55;;;8.20;;
29732;SDS011;16643;43.158;25.302;2022-10-16T08:58:58;16.48;;;7.63;;
29732;SDS011;16643;43.158;25.302;2022-10-16T09:01:25;15.65;;;8.05;;
29732;SDS011;16643;43.158;25.302;2022-10-16T09:07:04;22.08;;;11.20;;
29732;SDS011;16643;43.158;25.302;2022-10-16T09:12:28;11.50;;;7.10;;
29732;SDS011;16643;43.158;25.302;2022-10-16T09:21:06;14.18;;;9.05;;
29732;SDS011;16643;43.158;25.302;2022-10-16T09:23:39;14.32;;;8.55;;
29732;SDS011;16643;43.158;25.302;2022-10-16T09:26:05;15.07;;;9.38;;
29732;SDS011;16643;43.158;25.302;2022-10-16T09:28:36;11.18;;;8.50;;
29732;SDS011;16643;43.158;25.302;2022-10-16T09:31:02;12.18;;;8.50;;
29732;SDS011;16643;43.158;25.302;2022-10-16T09:33:28;16.33;;;8.65;;
29732;SDS011;16643;43.158;25.302;2022-10-16T09:35:59;13.95;;;8.32;;
29732;SDS011;16643;43.158;25.302;2022-10-16T09:38:27;10.45;;;7.80;;
29732;SDS011;16643;43.158;25.302;2022-10-16T09:40:55;14.18;;;8.23;;
29732;SDS011;16643;43.158;25.302;2022-10-16T09:45:56;9.07;;;5.57;;
29732;SDS011;16643;43.158;25.302;2022-10-16T09:48:25;9.90;;;6.63;;
29732;SDS011;16643;43.158;25.302;2022-10-16T09:51:00;8.30;;;6.30;;
29732;SDS011;16643;43.158;25.302;2022-10-16T09:56:06;11.57;;;6.88;;
29732;SDS011;16643;43.158;25.302;2022-10-16T09:58:35;7.60;;;4.75;;
29732;SDS011;16643;43.158;25.302;2022-10-16T10:01:00;9.38;;;5.70;;
29732;SDS011;16643;43.158;25.302;2022-10-16T10:03:39;27.30;;;11.00;;
29732;SDS011;16643;43.158;25.302;2022-10-16T10:06:26;14.90;;;7.82;;
29732;SDS011;16643;43.158;25.302;2022-10-16T10:08:55;12.80;;;7.05;;
29732;SDS011;16643;43.158;25.302;2022-10-16T10:14:08;10.27;;;5.45;;
29732;SDS011;16643;43.158;25.302;2022-10-16T10:17:07;9.77;;;5.65;;
29732;SDS011;16643;43.158;25.302;2022-10-16T10:19:50;11.18;;;5.97;;
29732;SDS011;16643;43.158;25.302;2022-10-16T10:25:14;26.52;;;8.80;;
29732;SDS011;16643;43.158;25.302;2022-10-16T10:30:34;8.75;;;5.28;;
29732;SDS011;16643;43.158;25.302;2022-10-16T10:50:02;8.63;;;5.72;;
29732;SDS011;16643;43.158;25.302;2022-10-16T10:52:43;10.18;;;6.13;;
29732;SDS011;16643;43.158;25.302;2022-10-16T10:55:45;9.32;;;5.70;;
29732;SDS011;16643;43.158;25.302;2022-10-16T11:04:31;10.43;;;5.45;;
29732;SDS011;16643;43.158;25.302;2022-10-16T11:07:27;10.50;;;6.03;;
29732;SDS011;16643;43.158;25.302;2022-10-16T11:10:05;8.88;;;5.57;;
29732;SDS011;16643;43.158;25.302;2022-10-16T11:12:40;8.80;;;5.97;;
29732;SDS011;16643;43.158;25.302;2022-10-16T11:15:17;21.15;;;10.57;;
29732;SDS011;16643;43.158;25.302;2022-10-16T11:17:52;7.55;;;4.88;;
29732;SDS011;16643;43.158;25.302;2022-10-16T11:20:56;13.27;;;6.20;;
29732;SDS011;16643;43.158;25.302;2022-10-16T11:26:10;8.38;;;5.40;;
29732;SDS011;16643;43.158;25.302;2022-10-16T11:28:51;8.75;;;5.55;;
29732;SDS011;16643;43.158;25.302;2022-10-16T11:37:19;11.75;;;6.22;;
29732;SDS011;16643;43.158;25.302;2022-10-16T11:39:42;12.18;;;6.43;;
29732;SDS011;16643;43.158;25.302;2022-10-16T11:42:19;13.82;;;5.70;;
29732;SDS011;16643;43.158;25.302;2022-10-16T11:48:04;9.82;;;5.03;;
29732;SDS011;16643;43.158;25.302;2022-10-16T11:50:56;9.13;;;5.63;;
29732;SDS011;16643;43.158;25.302;2022-10-16T11:56:08;12.85;;;5.95;;
29732;SDS011;16643;43.158;25.302;2022-10-16T12:01:33;9.88;;;5.75;;
29732;SDS011;16643;43.158;25.302;2022-10-16T12:07:03;7.40;;;4.88;;
29732;SDS011;16643;43.158;25.302;2022-10-16T12:09:37;7.15;;;4.95;;
29732;SDS011;16643;43.158;25.302;2022-10-16T12:12:04;14.60;;;5.85;;
29732;SDS011;16643;43.158;25.302;2022-10-16T12:14:59;6.78;;;4.20;;
29732;SDS011;16643;43.158;25.302;2022-10-16T12:17:36;9.32;;;4.10;;
29732;SDS011;16643;43.158;25.302;2022-10-16T12:22:41;7.53;;;4.63;;
29732;SDS011;16643;43.158;25.302;2022-10-16T12:25:29;8.40;;;4.65;;
29732;SDS011;16643;43.158;25.302;2022-10-16T12:28:04;6.40;;;4.22;;
29732;SDS011;16643;43.158;25.302;2022-10-16T12:30:41;6.95;;;4.45;;
29732;SDS011;16643;43.158;25.302;2022-10-16T12:33:23;11.93;;;4.75;;
29732;SDS011;16643;43.158;25.302;2022-10-16T12:35:52;8.20;;;4.57;;
29732;SDS011;16643;43.158;25.302;2022-10-16T12:38:19;7.13;;;4.17;;
29732;SDS011;16643;43.158;25.302;2022-10-16T12:41:05;10.40;;;4.72;;
29732;SDS011;16643;43.158;25.302;2022-10-16T12:48:36;36.92;;;16.80;;
29732;SDS011;16643;43.158;25.302;2022-10-16T13:18:29;18.90;;;10.48;;
29732;SDS011;16643;43.158;25.302;2022-10-16T13:21:09;22.42;;;12.15;;
29732;SDS011;16643;43.158;25.302;2022-10-16T13:26:23;7.60;;;4.97;;
29732;SDS011;16643;43.158;25.302;2022-10-16T13:29:00;9.48;;;4.43;;
29732;SDS011;16643;43.158;25.302;2022-10-16T13:31:27;6.22;;;4.20;;
29732;SDS011;16643;43.158;25.302;2022-10-16T13:33:55;8.27;;;4.47;;
29732;SDS011;16643;43.158;25.302;2022-10-16T13:38:59;7.00;;;3.97;;
29732;SDS011;16643;43.158;25.302;2022-10-16T13:41:43;10.35;;;4.10;;
29732;SDS011;16643;43.158;25.302;2022-10-16T13:44:28;8.27;;;4.05;;
29732;SDS011;16643;43.158;25.302;2022-10-16T13:46:59;9.30;;;5.05;;
29732;SDS011;16643;43.158;25.302;2022-10-16T13:49:25;5.68;;;4.05;;
29732;SDS011;16643;43.158;25.302;2022-10-16T13:52:33;7.15;;;4.95;;
29732;SDS011;16643;43.158;25.302;2022-10-16T13:54:41;7.68;;;4.28;;
29732;SDS011;16643;43.158;25.302;2022-10-16T13:57:07;8.30;;;4.55;;
29732;SDS011;16643;43.158;25.302;2022-10-16T13:59:33;10.50;;;4.88;;
29732;SDS011;16643;43.158;25.302;2022-10-16T14:02:00;8.43;;;4.30;;
29732;SDS011;16643;43.158;25.302;2022-10-16T14:04:39;10.23;;;5.68;;
29732;SDS011;16643;43.158;25.302;2022-10-16T14:07:05;8.07;;;4.40;;
29732;SDS011;16643;43.158;25.302;2022-10-16T14:09:30;9.05;;;4.63;;
29732;SDS011;16643;43.158;25.302;2022-10-16T14:11:58;6.97;;;4.88;;
29732;SDS011;16643;43.158;25.302;2022-10-16T14:14:33;10.20;;;4.47;;
29732;SDS011;16643;43.158;25.302;2022-10-16T14:17:05;5.90;;;4.20;;
29732;SDS011;16643;43.158;25.302;2022-10-16T14:19:31;11.07;;;4.88;;
29732;SDS011;16643;43.158;25.302;2022-10-16T14:21:57;7.93;;;4.32;;
29732;SDS011;16643;43.158;25.302;2022-10-16T14:24:34;6.55;;;4.18;;
29732;SDS011;16643;43.158;25.302;2022-10-16T14:27:00;7.90;;;4.65;;
29732;SDS011;16643;43.158;25.302;2022-10-16T14:29:28;8.40;;;4.95;;
29732;SDS011;16643;43.158;25.302;2022-10-16T14:32:03;6.55;;;4.35;;
29732;SDS011;16643;43.158;25.302;2022-10-16T14:34:34;8.20;;;4.55;;
29732;SDS011;16643;43.158;25.302;2022-10-16T14:39:50;8.15;;;6.70;;
29732;SDS011;16643;43.158;25.302;2022-10-16T14:42:17;8.30;;;4.75;;
29732;SDS011;16643;43.158;25.302;2022-10-16T14:44:45;10.80;;;5.75;;
29732;SDS011;16643;43.158;25.302;2022-10-16T14:47:13;10.35;;;4.68;;
29732;SDS011;16643;43.158;25.302;2022-10-16T14:49:47;8.60;;;4.45;;
29732;SDS011;16643;43.158;25.302;2022-10-16T14:52:13;10.52;;;5.20;;
29732;SDS011;16643;43.158;25.302;2022-10-16T14:54:39;8.80;;;5.00;;
29732;SDS011;16643;43.158;25.302;2022-10-16T14:57:05;9.40;;;5.00;;
29732;SDS011;16643;43.158;25.302;2022-10-16T14:59:43;9.13;;;5.20;;
29732;SDS011;16643;43.158;25.302;2022-10-16T15:04:53;8.48;;;4.80;;
29732;SDS011;16643;43.158;25.302;2022-10-16T15:07:19;18.73;;;5.45;;
29732;SDS011;16643;43.158;25.302;2022-10-16T15:09:45;11.85;;;5.05;;
29732;SDS011;16643;43.158;25.302;2022-10-16T15:12:11;8.98;;;4.90;;
29732;SDS011;16643;43.158;25.302;2022-10-16T15:14:36;9.20;;;4.78;;
29732;SDS011;16643;43.158;25.302;2022-10-16T15:17:02;7.82;;;4.85;;
29732;SDS011;16643;43.158;25.302;2022-10-16T15:19:28;11.38;;;5.35;;
29732;SDS011;16643;43.158;25.302;2022-10-16T15:21:55;12.70;;;8.10;;
29732;SDS011;16643;43.158;25.302;2022-10-16T15:24:21;14.45;;;8.43;;
29732;SDS011;16643;43.158;25.302;2022-10-16T15:26:46;13.50;;;7.50;;
29732;SDS011;16643;43.158;25.302;2022-10-16T15:29:13;9.18;;;6.40;;
29732;SDS011;16643;43.158;25.302;2022-10-16T15:31:39;11.93;;;7.45;;
29732;SDS011;16643;43.158;25.302;2022-10-16T15:36:35;22.67;;;11.00;;
29732;SDS011;16643;43.158;25.302;2022-10-16T15:39:10;18.10;;;9.25;;
29732;SDS011;16643;43.158;25.302;2022-10-16T15:41:38;14.70;;;7.13;;
29732;SDS011;16643;43.158;25.302;2022-10-16T15:44:04;10.38;;;6.25;;
29732;SDS011;16643;43.158;25.302;2022-10-16T15:46:30;14.05;;;6.05;;
29732;SDS011;16643;43.158;25.302;2022-10-16T15:48:58;12.23;;;5.65;;
29732;SDS011;16643;43.158;25.302;2022-10-16T15:51:24;10.80;;;6.18;;
29732;SDS011;16643;43.158;25.302;2022-10-16T15:53:55;8.57;;;5.32;;
29732;SDS011;16643;43.158;25.302;2022-10-16T15:56:21;10.97;;;6.00;;
29732;SDS011;16643;43.158;25.302;2022-10-16T15:58:48;9.93;;;5.40;;
29732;SDS011;16643;43.158;25.302;2022-10-16T16:01:13;17.52;;;5.38;;
29732;SDS011;16643;43.158;25.302;2022-10-16T16:03:39;8.65;;;5.78;;
29732;SDS011;16643;43.158;25.302;2022-10-16T16:06:09;8.95;;;5.30;;
29732;SDS011;16643;43.158;25.302;2022-10-16T16:08:36;11.15;;;6.07;;
29732;SDS011;16643;43.158;25.302;2022-10-16T16:11:04;13.40;;;6.43;;
29732;SDS011;16643;43.158;25.302;2022-10-16T16:13:32;11.52;;;7.13;;
29732;SDS011;16643;43.158;25.302;2022-10-16T16:15:58;16.17;;;7.75;;
29732;SDS011;16643;43.158;25.302;2022-10-16T16:18:24;11.90;;;6.70;;
29732;SDS011;16643;43.158;25.302;2022-10-16T16:20:50;17.77;;;8.98;;
29732;SDS011;16643;43.158;25.302;2022-10-16T16:23:16;15.95;;;9.27;;
29732;SDS011;16643;43.158;25.302;2022-10-16T16:25:42;16.40;;;8.38;;
29732;SDS011;16643;43.158;25.302;2022-10-16T16:28:08;17.65;;;8.57;;
29732;SDS011;16643;43.158;25.302;2022-10-16T16:30:35;12.45;;;7.13;;
29732;SDS011;16643;43.158;25.302;2022-10-16T16:33:02;11.20;;;7.05;;
29732;SDS011;16643;43.158;25.302;2022-10-16T16:35:28;8.57;;;6.25;;
29732;SDS011;16643;43.158;25.302;2022-10-16T16:37:54;14.05;;;7.60;;
29732;SDS011;16643;43.158;25.302;2022-10-16T16:40:20;11.60;;;6.82;;
29732;SDS011;16643;43.158;25.302;2022-10-16T16:42:47;9.35;;;6.10;;
29732;SDS011;16643;43.158;25.302;2022-10-16T16:45:13;12.93;;;7.03;;
29732;SDS011;16643;43.158;25.302;2022-10-16T16:47:39;12.50;;;7.53;;
29732;SDS011;16643;43.158;25.302;2022-10-16T16:50:05;13.95;;;7.45;;
29732;SDS011;16643;43.158;25.302;2022-10-16T16:52:32;13.05;;;7.78;;
29732;SDS011;16643;43.158;25.302;2022-10-16T16:54:58;11.80;;;7.68;;
29732;SDS011;16643;43.158;25.302;2022-10-16T16:57:24;11.88;;;8.07;;
29732;SDS011;16643;43.158;25.302;2022-10-16T16:59:50;16.00;;;8.60;;
29732;SDS011;16643;43.158;25.302;2022-10-16T17:02:16;13.57;;;8.00;;